sensor_id;sensor_type;location;lat;lon;timestamp;P1;durP1;ratioP1;P2;durP2;ratioP2
13797;SDS011;6970;51.340;3.240;2023-07-24T00:04:26;5.80;;;3.80;;
13797;SDS011;6970;51.340;3.240;2023-07-24T00:06:53;6.07;;;4.10;;
13797;SDS011;6970;51.340;3.240;2023-07-24T00:09:21;4.20;;;3.80;;
13797;SDS011;6970;51.340;3.240;2023-07-24T00:11:48;5.03;;;3.90;;
13797;SDS011;6970;51.340;3.240;2023-07-24T00:14:18;4.53;;;3.63;;
13797;SDS011;6970;51.340;3.240;2023-07-24T00:16:46;6.10;;;3.60;;
13797;SDS011;6970;51.340;3.240;2023-07-24T00:19:16;4.17;;;3.77;;
13797;SDS011;6970;51.340;3.240;2023-07-24T00:21:43;4.63;;;3.73;;
13797;SDS011;6970;51.340;3.240;2023-07-24T00:24:13;4.23;;;3.83;;
13797;SDS011;6970;51.340;3.240;2023-07-24T00:29:12;4.07;;;3.67;;
13797;SDS011;6970;51.340;3.240;2023-07-24T00:34:13;5.73;;;3.87;;
13797;SDS011;6970;51.340;3.240;2023-07-24T00:36:40;7.47;;;4.17;;
13797;SDS011;6970;51.340;3.240;2023-07-24T00:41:39;5.20;;;4.03;;
13797;SDS011;6970;51.340;3.240;2023-07-24T00:46:37;7.63;;;4.80;;
13797;SDS011;6970;51.340;3.240;2023-07-24T00:51:38;5.73;;;4.27;;
13797;SDS011;6970;51.340;3.240;2023-07-24T00:54:07;8.67;;;5.33;;
13797;SDS011;6970;51.340;3.240;2023-07-24T00:59:08;11.07;;;5.20;;
13797;SDS011;6970;51.340;3.240;2023-07-24T01:01:37;5.80;;;4.33;;
13797;SDS011;6970;51.340;3.240;2023-07-24T01:04:07;6.43;;;4.70;;
13797;SDS011;6970;51.340;3.240;2023-07-24T01:06:35;4.70;;;3.80;;
13797;SDS011;6970;51.340;3.240;2023-07-24T01:09:03;5.97;;;4.30;;
13797;SDS011;6970;51.340;3.240;2023-07-24T01:11:33;5.53;;;4.30;;
13797;SDS011;6970;51.340;3.240;2023-07-24T01:14:25;6.50;;;5.10;;
13797;SDS011;6970;51.340;3.240;2023-07-24T01:16:59;6.67;;;4.50;;
13797;SDS011;6970;51.340;3.240;2023-07-24T01:19:39;7.07;;;4.83;;
13797;SDS011;6970;51.340;3.240;2023-07-24T01:27:44;6.13;;;5.20;;
13797;SDS011;6970;51.340;3.240;2023-07-24T01:30:16;7.00;;;5.37;;
13797;SDS011;6970;51.340;3.240;2023-07-24T01:32:45;5.90;;;5.27;;
13797;SDS011;6970;51.340;3.240;2023-07-24T01:35:13;7.03;;;5.80;;
13797;SDS011;6970;51.340;3.240;2023-07-24T01:37:42;9.57;;;5.83;;
13797;SDS011;6970;51.340;3.240;2023-07-24T01:40:11;8.73;;;5.80;;
13797;SDS011;6970;51.340;3.240;2023-07-24T01:42:39;7.87;;;5.87;;
13797;SDS011;6970;51.340;3.240;2023-07-24T01:45:15;11.23;;;5.43;;
13797;SDS011;6970;51.340;3.240;2023-07-24T01:50:13;9.17;;;6.00;;
13797;SDS011;6970;51.340;3.240;2023-07-24T01:52:40;9.10;;;5.50;;
13797;SDS011;6970;51.340;3.240;2023-07-24T01:55:10;5.90;;;4.90;;
13797;SDS011;6970;51.340;3.240;2023-07-24T02:00:08;8.67;;;6.50;;
13797;SDS011;6970;51.340;3.240;2023-07-24T02:05:12;5.97;;;4.77;;
13797;SDS011;6970;51.340;3.240;2023-07-24T02:07:55;6.30;;;5.30;;
13797;SDS011;6970;51.340;3.240;2023-07-24T02:10:22;6.60;;;4.90;;
13797;SDS011;6970;51.340;3.240;2023-07-24T02:12:50;7.63;;;5.43;;
13797;SDS011;6970;51.340;3.240;2023-07-24T02:17:49;7.87;;;5.53;;
13797;SDS011;6970;51.340;3.240;2023-07-24T02:20:17;8.30;;;5.63;;
13797;SDS011;6970;51.340;3.240;2023-07-24T02:22:47;7.47;;;5.40;;
13797;SDS011;6970;51.340;3.240;2023-07-24T02:25:17;6.63;;;5.43;;
13797;SDS011;6970;51.340;3.240;2023-07-24T02:30:14;8.80;;;5.83;;
13797;SDS011;6970;51.340;3.240;2023-07-24T02:35:14;9.37;;;5.47;;
13797;SDS011;6970;51.340;3.240;2023-07-24T02:37:43;8.70;;;5.50;;
13797;SDS011;6970;51.340;3.240;2023-07-24T02:40:11;7.43;;;5.57;;
13797;SDS011;6970;51.340;3.240;2023-07-24T02:45:14;5.87;;;5.23;;
13797;SDS011;6970;51.340;3.240;2023-07-24T02:47:44;7.17;;;5.17;;
13797;SDS011;6970;51.340;3.240;2023-07-24T02:52:42;8.27;;;5.93;;
13797;SDS011;6970;51.340;3.240;2023-07-24T03:00:09;7.67;;;5.60;;
13797;SDS011;6970;51.340;3.240;2023-07-24T03:02:40;7.10;;;5.77;;
13797;SDS011;6970;51.340;3.240;2023-07-24T03:05:07;6.60;;;5.97;;
13797;SDS011;6970;51.340;3.240;2023-07-24T03:10:08;8.00;;;6.43;;
13797;SDS011;6970;51.340;3.240;2023-07-24T03:12:36;8.40;;;7.10;;
13797;SDS011;6970;51.340;3.240;2023-07-24T03:15:06;7.47;;;6.27;;
13797;SDS011;6970;51.340;3.240;2023-07-24T03:25:14;9.20;;;6.60;;
13797;SDS011;6970;51.340;3.240;2023-07-24T03:27:44;7.97;;;6.57;;
13797;SDS011;6970;51.340;3.240;2023-07-24T03:32:41;9.10;;;6.70;;
13797;SDS011;6970;51.340;3.240;2023-07-24T03:35:11;9.83;;;6.83;;
13797;SDS011;6970;51.340;3.240;2023-07-24T03:37:41;7.23;;;6.53;;
13797;SDS011;6970;51.340;3.240;2023-07-24T03:40:09;8.07;;;6.17;;
13797;SDS011;6970;51.340;3.240;2023-07-24T03:42:40;8.23;;;6.83;;
13797;SDS011;6970;51.340;3.240;2023-07-24T03:45:07;7.90;;;6.13;;
13797;SDS011;6970;51.340;3.240;2023-07-24T03:47:35;7.27;;;6.43;;
13797;SDS011;6970;51.340;3.240;2023-07-24T03:50:03;6.90;;;5.90;;
13797;SDS011;6970;51.340;3.240;2023-07-24T03:52:32;7.27;;;6.03;;
13797;SDS011;6970;51.340;3.240;2023-07-24T03:57:33;6.20;;;5.30;;
13797;SDS011;6970;51.340;3.240;2023-07-24T04:02:33;7.37;;;5.13;;
13797;SDS011;6970;51.340;3.240;2023-07-24T04:05:04;6.47;;;5.37;;
13797;SDS011;6970;51.340;3.240;2023-07-24T04:07:32;10.37;;;6.40;;
13797;SDS011;6970;51.340;3.240;2023-07-24T04:09:59;5.97;;;5.17;;
13797;SDS011;6970;51.340;3.240;2023-07-24T04:12:28;9.90;;;5.60;;
13797;SDS011;6970;51.340;3.240;2023-07-24T04:17:32;10.60;;;5.83;;
13797;SDS011;6970;51.340;3.240;2023-07-24T04:20:00;7.97;;;5.70;;
13797;SDS011;6970;51.340;3.240;2023-07-24T04:22:30;9.70;;;5.90;;
13797;SDS011;6970;51.340;3.240;2023-07-24T04:27:30;6.40;;;5.77;;
13797;SDS011;6970;51.340;3.240;2023-07-24T04:29:58;9.67;;;6.10;;
13797;SDS011;6970;51.340;3.240;2023-07-24T04:32:31;7.90;;;6.80;;
13797;SDS011;6970;51.340;3.240;2023-07-24T04:35:02;9.97;;;5.90;;
13797;SDS011;6970;51.340;3.240;2023-07-24T04:37:30;9.07;;;6.67;;
13797;SDS011;6970;51.340;3.240;2023-07-24T04:40:00;12.10;;;6.57;;
13797;SDS011;6970;51.340;3.240;2023-07-24T04:42:27;10.80;;;6.53;;
13797;SDS011;6970;51.340;3.240;2023-07-24T04:44:57;9.50;;;6.27;;
13797;SDS011;6970;51.340;3.240;2023-07-24T04:47:25;11.70;;;6.37;;
13797;SDS011;6970;51.340;3.240;2023-07-24T04:49:56;9.03;;;6.10;;
13797;SDS011;6970;51.340;3.240;2023-07-24T04:52:24;8.73;;;6.20;;
13797;SDS011;6970;51.340;3.240;2023-07-24T04:54:52;8.63;;;5.17;;
13797;SDS011;6970;51.340;3.240;2023-07-24T04:57:19;7.80;;;5.20;;
13797;SDS011;6970;51.340;3.240;2023-07-24T04:59:47;11.27;;;5.87;;
13797;SDS011;6970;51.340;3.240;2023-07-24T05:02:15;7.20;;;6.27;;
13797;SDS011;6970;51.340;3.240;2023-07-24T05:04:44;9.20;;;5.77;;
13797;SDS011;6970;51.340;3.240;2023-07-24T05:09:42;6.37;;;5.73;;
13797;SDS011;6970;51.340;3.240;2023-07-24T05:12:15;7.30;;;5.80;;
13797;SDS011;6970;51.340;3.240;2023-07-24T05:14:43;12.77;;;6.27;;
13797;SDS011;6970;51.340;3.240;2023-07-24T05:17:13;7.90;;;5.70;;
13797;SDS011;6970;51.340;3.240;2023-07-24T05:19:47;10.13;;;5.60;;
13797;SDS011;6970;51.340;3.240;2023-07-24T05:24:51;7.97;;;5.77;;
13797;SDS011;6970;51.340;3.240;2023-07-24T05:27:21;7.67;;;6.40;;
13797;SDS011;6970;51.340;3.240;2023-07-24T05:32:21;9.23;;;6.60;;
13797;SDS011;6970;51.340;3.240;2023-07-24T05:34:48;9.67;;;5.83;;
13797;SDS011;6970;51.340;3.240;2023-07-24T05:37:19;8.00;;;5.73;;
13797;SDS011;6970;51.340;3.240;2023-07-24T05:39:46;8.57;;;6.03;;
13797;SDS011;6970;51.340;3.240;2023-07-24T05:42:14;10.07;;;6.17;;
13797;SDS011;6970;51.340;3.240;2023-07-24T05:44:41;7.80;;;6.10;;
13797;SDS011;6970;51.340;3.240;2023-07-24T05:47:11;10.23;;;5.53;;
13797;SDS011;6970;51.340;3.240;2023-07-24T05:49:44;8.50;;;5.50;;
13797;SDS011;6970;51.340;3.240;2023-07-24T05:52:13;11.67;;;5.80;;
13797;SDS011;6970;51.340;3.240;2023-07-24T05:54:40;7.43;;;5.37;;
13797;SDS011;6970;51.340;3.240;2023-07-24T05:57:07;13.67;;;6.27;;
13797;SDS011;6970;51.340;3.240;2023-07-24T05:59:36;7.80;;;6.10;;
13797;SDS011;6970;51.340;3.240;2023-07-24T06:02:05;16.97;;;6.77;;
13797;SDS011;6970;51.340;3.240;2023-07-24T06:04:36;10.27;;;6.30;;
13797;SDS011;6970;51.340;3.240;2023-07-24T06:07:09;10.67;;;6.40;;
13797;SDS011;6970;51.340;3.240;2023-07-24T06:09:39;8.63;;;6.17;;
13797;SDS011;6970;51.340;3.240;2023-07-24T06:12:08;10.10;;;6.20;;
13797;SDS011;6970;51.340;3.240;2023-07-24T06:14:36;7.97;;;5.90;;
13797;SDS011;6970;51.340;3.240;2023-07-24T06:17:19;9.57;;;5.73;;
13797;SDS011;6970;51.340;3.240;2023-07-24T06:19:53;12.70;;;6.17;;
13797;SDS011;6970;51.340;3.240;2023-07-24T06:22:21;10.37;;;6.20;;
13797;SDS011;6970;51.340;3.240;2023-07-24T06:27:21;12.37;;;7.23;;
13797;SDS011;6970;51.340;3.240;2023-07-24T06:29:51;9.10;;;6.10;;
13797;SDS011;6970;51.340;3.240;2023-07-24T06:32:24;8.60;;;5.80;;
13797;SDS011;6970;51.340;3.240;2023-07-24T06:34:53;8.77;;;6.07;;
13797;SDS011;6970;51.340;3.240;2023-07-24T06:37:25;8.30;;;6.93;;
13797;SDS011;6970;51.340;3.240;2023-07-24T06:39:53;11.67;;;6.20;;
13797;SDS011;6970;51.340;3.240;2023-07-24T06:42:20;9.43;;;6.47;;
13797;SDS011;6970;51.340;3.240;2023-07-24T06:47:18;11.83;;;6.37;;
13797;SDS011;6970;51.340;3.240;2023-07-24T06:49:51;7.70;;;5.77;;
13797;SDS011;6970;51.340;3.240;2023-07-24T06:52:19;8.90;;;5.50;;
13797;SDS011;6970;51.340;3.240;2023-07-24T06:54:47;8.70;;;6.13;;
13797;SDS011;6970;51.340;3.240;2023-07-24T06:57:14;8.33;;;6.00;;
13797;SDS011;6970;51.340;3.240;2023-07-24T06:59:43;11.43;;;6.00;;
13797;SDS011;6970;51.340;3.240;2023-07-24T07:02:11;11.83;;;7.10;;
13797;SDS011;6970;51.340;3.240;2023-07-24T07:07:08;7.13;;;6.40;;
13797;SDS011;6970;51.340;3.240;2023-07-24T07:12:07;11.07;;;5.77;;
13797;SDS011;6970;51.340;3.240;2023-07-24T07:14:35;8.53;;;5.73;;
13797;SDS011;6970;51.340;3.240;2023-07-24T07:17:04;7.73;;;5.40;;
13797;SDS011;6970;51.340;3.240;2023-07-24T07:22:08;9.73;;;5.23;;
13797;SDS011;6970;51.340;3.240;2023-07-24T07:24:37;8.13;;;5.40;;
13797;SDS011;6970;51.340;3.240;2023-07-24T07:27:08;11.83;;;5.20;;
13797;SDS011;6970;51.340;3.240;2023-07-24T07:29:35;10.13;;;6.00;;
13797;SDS011;6970;51.340;3.240;2023-07-24T07:32:03;9.37;;;6.70;;
13797;SDS011;6970;51.340;3.240;2023-07-24T07:34:31;10.37;;;6.73;;
13797;SDS011;6970;51.340;3.240;2023-07-24T07:36:59;13.07;;;8.53;;
13797;SDS011;6970;51.340;3.240;2023-07-24T07:39:27;13.33;;;7.70;;
13797;SDS011;6970;51.340;3.240;2023-07-24T07:47:14;11.70;;;7.87;;
13797;SDS011;6970;51.340;3.240;2023-07-24T07:49:47;10.40;;;8.07;;
13797;SDS011;6970;51.340;3.240;2023-07-24T07:52:15;11.50;;;7.67;;
13797;SDS011;6970;51.340;3.240;2023-07-24T07:54:47;8.40;;;7.10;;
13797;SDS011;6970;51.340;3.240;2023-07-24T07:57:21;7.97;;;6.60;;
13797;SDS011;6970;51.340;3.240;2023-07-24T07:59:49;8.80;;;6.47;;
13797;SDS011;6970;51.340;3.240;2023-07-24T08:02:19;8.70;;;6.67;;
13797;SDS011;6970;51.340;3.240;2023-07-24T08:04:46;10.43;;;7.10;;
13797;SDS011;6970;51.340;3.240;2023-07-24T08:07:14;12.37;;;7.13;;
13797;SDS011;6970;51.340;3.240;2023-07-24T08:09:46;14.50;;;7.17;;
13797;SDS011;6970;51.340;3.240;2023-07-24T08:12:16;8.63;;;7.33;;
13797;SDS011;6970;51.340;3.240;2023-07-24T08:14:44;7.53;;;6.83;;
13797;SDS011;6970;51.340;3.240;2023-07-24T08:17:14;10.50;;;7.63;;
13797;SDS011;6970;51.340;3.240;2023-07-24T08:19:42;7.47;;;6.63;;
13797;SDS011;6970;51.340;3.240;2023-07-24T08:22:10;9.37;;;6.83;;
13797;SDS011;6970;51.340;3.240;2023-07-24T08:24:38;9.10;;;7.13;;
13797;SDS011;6970;51.340;3.240;2023-07-24T08:29:35;12.03;;;7.30;;
13797;SDS011;6970;51.340;3.240;2023-07-24T08:34:37;7.17;;;6.47;;
13797;SDS011;6970;51.340;3.240;2023-07-24T08:37:04;12.37;;;6.77;;
13797;SDS011;6970;51.340;3.240;2023-07-24T08:39:31;9.37;;;6.63;;
13797;SDS011;6970;51.340;3.240;2023-07-24T08:41:59;10.53;;;6.97;;
13797;SDS011;6970;51.340;3.240;2023-07-24T08:47:04;10.13;;;6.63;;
13797;SDS011;6970;51.340;3.240;2023-07-24T08:49:34;8.60;;;6.23;;
13797;SDS011;6970;51.340;3.240;2023-07-24T08:52:09;6.57;;;5.33;;
13797;SDS011;6970;51.340;3.240;2023-07-24T08:57:33;7.37;;;6.27;;
13797;SDS011;6970;51.340;3.240;2023-07-24T09:00:01;6.40;;;5.43;;
13797;SDS011;6970;51.340;3.240;2023-07-24T09:02:39;8.20;;;5.73;;
13797;SDS011;6970;51.340;3.240;2023-07-24T09:05:08;9.87;;;5.30;;
13797;SDS011;6970;51.340;3.240;2023-07-24T09:07:37;8.13;;;5.57;;
13797;SDS011;6970;51.340;3.240;2023-07-24T09:10:04;7.30;;;5.60;;
13797;SDS011;6970;51.340;3.240;2023-07-24T09:12:39;7.73;;;5.30;;
13797;SDS011;6970;51.340;3.240;2023-07-24T09:15:11;8.27;;;5.13;;
13797;SDS011;6970;51.340;3.240;2023-07-24T09:17:49;7.60;;;5.13;;
13797;SDS011;6970;51.340;3.240;2023-07-24T09:20:20;5.33;;;4.47;;
13797;SDS011;6970;51.340;3.240;2023-07-24T09:22:51;7.47;;;5.00;;
13797;SDS011;6970;51.340;3.240;2023-07-24T09:25:40;7.07;;;5.63;;
13797;SDS011;6970;51.340;3.240;2023-07-24T09:28:10;5.37;;;3.93;;
13797;SDS011;6970;51.340;3.240;2023-07-24T09:30:41;10.50;;;4.37;;
13797;SDS011;6970;51.340;3.240;2023-07-24T09:33:10;5.57;;;3.93;;
13797;SDS011;6970;51.340;3.240;2023-07-24T09:38:08;9.73;;;4.60;;
13797;SDS011;6970;51.340;3.240;2023-07-24T09:40:40;7.77;;;4.10;;
13797;SDS011;6970;51.340;3.240;2023-07-24T09:46:07;5.90;;;3.00;;
13797;SDS011;6970;51.340;3.240;2023-07-24T09:48:37;5.30;;;2.70;;
13797;SDS011;6970;51.340;3.240;2023-07-24T09:51:12;7.03;;;3.30;;
13797;SDS011;6970;51.340;3.240;2023-07-24T09:53:44;9.33;;;4.07;;
13797;SDS011;6970;51.340;3.240;2023-07-24T09:56:19;6.53;;;3.30;;
13797;SDS011;6970;51.340;3.240;2023-07-24T09:58:58;6.27;;;3.17;;
13797;SDS011;6970;51.340;3.240;2023-07-24T10:01:26;5.37;;;2.70;;
13797;SDS011;6970;51.340;3.240;2023-07-24T10:03:58;4.03;;;2.60;;
13797;SDS011;6970;51.340;3.240;2023-07-24T10:06:29;3.23;;;2.83;;
13797;SDS011;6970;51.340;3.240;2023-07-24T10:09:00;5.50;;;2.73;;
13797;SDS011;6970;51.340;3.240;2023-07-24T10:11:28;6.37;;;3.37;;
13797;SDS011;6970;51.340;3.240;2023-07-24T10:16:30;6.83;;;3.30;;
13797;SDS011;6970;51.340;3.240;2023-07-24T10:18:57;7.57;;;3.30;;
13797;SDS011;6970;51.340;3.240;2023-07-24T10:24:16;7.37;;;2.97;;
13797;SDS011;6970;51.340;3.240;2023-07-24T10:27:03;5.37;;;2.73;;
13797;SDS011;6970;51.340;3.240;2023-07-24T10:29:35;3.63;;;2.40;;
13797;SDS011;6970;51.340;3.240;2023-07-24T10:34:44;4.57;;;2.27;;
13797;SDS011;6970;51.340;3.240;2023-07-24T10:37:14;4.40;;;2.20;;
13797;SDS011;6970;51.340;3.240;2023-07-24T10:42:15;3.57;;;2.13;;
13797;SDS011;6970;51.340;3.240;2023-07-24T10:45:00;5.80;;;2.50;;
13797;SDS011;6970;51.340;3.240;2023-07-24T10:47:37;3.50;;;2.27;;
13797;SDS011;6970;51.340;3.240;2023-07-24T10:50:07;3.00;;;2.10;;
13797;SDS011;6970;51.340;3.240;2023-07-24T10:52:35;5.17;;;2.47;;
13797;SDS011;6970;51.340;3.240;2023-07-24T10:57:32;4.07;;;2.00;;
13797;SDS011;6970;51.340;3.240;2023-07-24T11:02:32;3.13;;;2.20;;
13797;SDS011;6970;51.340;3.240;2023-07-24T11:05:00;5.63;;;2.67;;
13797;SDS011;6970;51.340;3.240;2023-07-24T11:07:31;5.30;;;2.53;;
13797;SDS011;6970;51.340;3.240;2023-07-24T11:10:02;4.27;;;2.27;;
13797;SDS011;6970;51.340;3.240;2023-07-24T11:15:01;3.85;;;2.30;;
13797;SDS011;6970;51.340;3.240;2023-07-24T11:17:39;4.63;;;2.45;;
13797;SDS011;6970;51.340;3.240;2023-07-24T11:20:13;3.72;;;2.10;;
13797;SDS011;6970;51.340;3.240;2023-07-24T11:22:43;2.78;;;2.38;;
13797;SDS011;6970;51.340;3.240;2023-07-24T11:27:43;4.93;;;2.92;;
13797;SDS011;6970;51.340;3.240;2023-07-24T11:30:20;5.88;;;2.35;;
13797;SDS011;6970;51.340;3.240;2023-07-24T11:35:19;5.90;;;2.10;;
13797;SDS011;6970;51.340;3.240;2023-07-24T11:37:50;7.07;;;2.25;;
13797;SDS011;6970;51.340;3.240;2023-07-24T11:40:20;4.18;;;2.35;;
13797;SDS011;6970;51.340;3.240;2023-07-24T11:42:48;2.83;;;1.95;;
13797;SDS011;6970;51.340;3.240;2023-07-24T11:45:18;6.32;;;2.53;;
13797;SDS011;6970;51.340;3.240;2023-07-24T11:47:50;5.93;;;2.65;;
13797;SDS011;6970;51.340;3.240;2023-07-24T11:50:23;3.50;;;2.08;;
13797;SDS011;6970;51.340;3.240;2023-07-24T11:55:30;3.38;;;2.13;;
13797;SDS011;6970;51.340;3.240;2023-07-24T11:58:04;4.15;;;2.65;;
13797;SDS011;6970;51.340;3.240;2023-07-24T12:00:34;4.18;;;2.35;;
13797;SDS011;6970;51.340;3.240;2023-07-24T12:05:43;4.40;;;2.22;;
13797;SDS011;6970;51.340;3.240;2023-07-24T12:08:29;3.58;;;2.42;;
13797;SDS011;6970;51.340;3.240;2023-07-24T12:11:03;3.13;;;2.33;;
13797;SDS011;6970;51.340;3.240;2023-07-24T12:13:30;5.88;;;2.40;;
13797;SDS011;6970;51.340;3.240;2023-07-24T12:15:58;4.20;;;2.72;;
13797;SDS011;6970;51.340;3.240;2023-07-24T12:18:26;4.70;;;3.40;;
13797;SDS011;6970;51.340;3.240;2023-07-24T12:20:53;4.43;;;2.65;;
13797;SDS011;6970;51.340;3.240;2023-07-24T12:23:20;4.40;;;2.88;;
13797;SDS011;6970;51.340;3.240;2023-07-24T12:25:50;6.05;;;2.90;;
13797;SDS011;6970;51.340;3.240;2023-07-24T12:28:19;5.95;;;2.30;;
13797;SDS011;6970;51.340;3.240;2023-07-24T12:30:46;6.65;;;3.17;;
13797;SDS011;6970;51.340;3.240;2023-07-24T12:35:51;6.47;;;2.57;;
13797;SDS011;6970;51.340;3.240;2023-07-24T12:38:22;4.90;;;2.47;;
13797;SDS011;6970;51.340;3.240;2023-07-24T12:40:50;7.30;;;3.20;;
13797;SDS011;6970;51.340;3.240;2023-07-24T12:43:19;5.07;;;2.63;;
13797;SDS011;6970;51.340;3.240;2023-07-24T12:45:46;7.10;;;2.40;;
13797;SDS011;6970;51.340;3.240;2023-07-24T12:48:16;4.32;;;2.20;;
13797;SDS011;6970;51.340;3.240;2023-07-24T12:50:44;2.73;;;2.03;;
13797;SDS011;6970;51.340;3.240;2023-07-24T12:53:14;4.30;;;2.28;;
13797;SDS011;6970;51.340;3.240;2023-07-24T12:55:46;5.47;;;2.47;;
13797;SDS011;6970;51.340;3.240;2023-07-24T12:58:15;5.00;;;2.20;;
13797;SDS011;6970;51.340;3.240;2023-07-24T13:00:43;4.45;;;2.10;;
13797;SDS011;6970;51.340;3.240;2023-07-24T13:03:10;3.78;;;2.38;;
13797;SDS011;6970;51.340;3.240;2023-07-24T13:05:39;4.82;;;2.90;;
13797;SDS011;6970;51.340;3.240;2023-07-24T13:08:09;6.20;;;2.90;;
13797;SDS011;6970;51.340;3.240;2023-07-24T13:10:39;8.60;;;2.75;;
13797;SDS011;6970;51.340;3.240;2023-07-24T13:13:09;5.03;;;3.00;;
13797;SDS011;6970;51.340;3.240;2023-07-24T13:15:36;5.65;;;2.35;;
13797;SDS011;6970;51.340;3.240;2023-07-24T13:20:58;5.40;;;2.47;;
13797;SDS011;6970;51.340;3.240;2023-07-24T13:23:28;5.43;;;2.47;;
13797;SDS011;6970;51.340;3.240;2023-07-24T13:25:59;2.97;;;2.60;;
13797;SDS011;6970;51.340;3.240;2023-07-24T13:30:58;8.00;;;2.10;;
13797;SDS011;6970;51.340;3.240;2023-07-24T13:33:26;4.63;;;1.63;;
13797;SDS011;6970;51.340;3.240;2023-07-24T13:35:53;2.57;;;1.00;;
13797;SDS011;6970;51.340;3.240;2023-07-24T13:38:21;5.23;;;1.40;;
13797;SDS011;6970;51.340;3.240;2023-07-24T13:40:50;5.63;;;1.60;;
13797;SDS011;6970;51.340;3.240;2023-07-24T13:43:18;3.83;;;0.77;;
13797;SDS011;6970;51.340;3.240;2023-07-24T13:45:45;5.07;;;1.10;;
13797;SDS011;6970;51.340;3.240;2023-07-24T13:48:13;3.77;;;1.47;;
13797;SDS011;6970;51.340;3.240;2023-07-24T13:50:40;4.07;;;1.00;;
13797;SDS011;6970;51.340;3.240;2023-07-24T13:53:09;2.27;;;0.80;;
13797;SDS011;6970;51.340;3.240;2023-07-24T13:55:39;2.27;;;0.80;;
13797;SDS011;6970;51.340;3.240;2023-07-24T13:58:07;3.70;;;0.70;;
13797;SDS011;6970;51.340;3.240;2023-07-24T14:00:34;3.37;;;1.33;;
13797;SDS011;6970;51.340;3.240;2023-07-24T14:03:03;1.83;;;0.93;;
13797;SDS011;6970;51.340;3.240;2023-07-24T14:05:31;1.47;;;0.73;;
13797;SDS011;6970;51.340;3.240;2023-07-24T14:08:00;3.57;;;0.90;;
13797;SDS011;6970;51.340;3.240;2023-07-24T14:10:28;3.10;;;0.80;;
13797;SDS011;6970;51.340;3.240;2023-07-24T14:12:55;2.47;;;0.67;;
13797;SDS011;6970;51.340;3.240;2023-07-24T14:15:22;1.97;;;0.60;;
13797;SDS011;6970;51.340;3.240;2023-07-24T14:17:50;4.87;;;1.60;;
13797;SDS011;6970;51.340;3.240;2023-07-24T14:20:17;2.53;;;0.77;;
13797;SDS011;6970;51.340;3.240;2023-07-24T14:22:47;6.90;;;0.93;;
13797;SDS011;6970;51.340;3.240;2023-07-24T14:25:14;3.80;;;0.90;;
13797;SDS011;6970;51.340;3.240;2023-07-24T14:27:43;4.07;;;0.60;;
13797;SDS011;6970;51.340;3.240;2023-07-24T14:30:10;1.83;;;0.50;;
13797;SDS011;6970;51.340;3.240;2023-07-24T14:32:41;3.17;;;0.60;;
13797;SDS011;6970;51.340;3.240;2023-07-24T14:35:08;5.47;;;0.80;;
13797;SDS011;6970;51.340;3.240;2023-07-24T14:37:35;2.73;;;0.50;;
13797;SDS011;6970;51.340;3.240;2023-07-24T14:40:03;1.30;;;0.50;;
13797;SDS011;6970;51.340;3.240;2023-07-24T14:42:30;2.83;;;1.00;;
13797;SDS011;6970;51.340;3.240;2023-07-24T14:44:57;2.40;;;0.80;;
13797;SDS011;6970;51.340;3.240;2023-07-24T14:47:29;7.10;;;0.93;;
13797;SDS011;6970;51.340;3.240;2023-07-24T14:49:56;1.73;;;0.70;;
13797;SDS011;6970;51.340;3.240;2023-07-24T14:52:24;2.83;;;0.70;;
13797;SDS011;6970;51.340;3.240;2023-07-24T14:54:53;2.60;;;0.53;;
13797;SDS011;6970;51.340;3.240;2023-07-24T14:57:20;2.20;;;0.60;;
13797;SDS011;6970;51.340;3.240;2023-07-24T14:59:51;2.37;;;0.50;;
13797;SDS011;6970;51.340;3.240;2023-07-24T15:02:21;3.60;;;0.77;;
13797;SDS011;6970;51.340;3.240;2023-07-24T15:04:49;3.43;;;0.60;;
13797;SDS011;6970;51.340;3.240;2023-07-24T15:07:17;2.03;;;0.60;;
13797;SDS011;6970;51.340;3.240;2023-07-24T15:09:44;3.73;;;0.80;;
13797;SDS011;6970;51.340;3.240;2023-07-24T15:12:11;2.80;;;0.70;;
13797;SDS011;6970;51.340;3.240;2023-07-24T15:14:40;2.93;;;0.87;;
13797;SDS011;6970;51.340;3.240;2023-07-24T15:17:10;4.90;;;0.93;;
13797;SDS011;6970;51.340;3.240;2023-07-24T15:19:41;2.43;;;1.10;;
13797;SDS011;6970;51.340;3.240;2023-07-24T15:22:08;3.03;;;0.90;;
13797;SDS011;6970;51.340;3.240;2023-07-24T15:24:35;3.67;;;1.13;;
13797;SDS011;6970;51.340;3.240;2023-07-24T15:27:02;5.23;;;1.10;;
13797;SDS011;6970;51.340;3.240;2023-07-24T15:32:05;2.27;;;0.80;;
13797;SDS011;6970;51.340;3.240;2023-07-24T15:34:36;3.70;;;1.17;;
13797;SDS011;6970;51.340;3.240;2023-07-24T15:37:05;2.90;;;0.90;;
13797;SDS011;6970;51.340;3.240;2023-07-24T15:39:32;3.43;;;1.10;;
13797;SDS011;6970;51.340;3.240;2023-07-24T15:42:01;3.50;;;1.10;;
13797;SDS011;6970;51.340;3.240;2023-07-24T15:44:32;2.90;;;1.33;;
13797;SDS011;6970;51.340;3.240;2023-07-24T15:47:01;2.87;;;1.63;;
13797;SDS011;6970;51.340;3.240;2023-07-24T15:49:29;1.83;;;1.00;;
13797;SDS011;6970;51.340;3.240;2023-07-24T15:51:56;2.63;;;1.07;;
13797;SDS011;6970;51.340;3.240;2023-07-24T15:54:24;4.17;;;1.10;;
13797;SDS011;6970;51.340;3.240;2023-07-24T15:56:51;4.70;;;1.30;;
13797;SDS011;6970;51.340;3.240;2023-07-24T15:59:22;7.03;;;1.67;;
13797;SDS011;6970;51.340;3.240;2023-07-24T16:01:50;4.00;;;1.20;;
13797;SDS011;6970;51.340;3.240;2023-07-24T16:04:17;3.87;;;1.20;;
13797;SDS011;6970;51.340;3.240;2023-07-24T16:06:47;2.47;;;1.10;;
13797;SDS011;6970;51.340;3.240;2023-07-24T16:09:15;3.30;;;1.43;;
13797;SDS011;6970;51.340;3.240;2023-07-24T16:11:42;8.20;;;1.40;;
13797;SDS011;6970;51.340;3.240;2023-07-24T16:14:14;3.87;;;1.20;;
13797;SDS011;6970;51.340;3.240;2023-07-24T16:19:16;5.50;;;1.70;;
13797;SDS011;6970;51.340;3.240;2023-07-24T16:21:47;6.63;;;1.80;;
13797;SDS011;6970;51.340;3.240;2023-07-24T16:24:16;5.27;;;1.73;;
13797;SDS011;6970;51.340;3.240;2023-07-24T16:26:46;3.63;;;1.20;;
13797;SDS011;6970;51.340;3.240;2023-07-24T16:29:17;6.43;;;1.73;;
13797;SDS011;6970;51.340;3.240;2023-07-24T16:31:46;4.43;;;1.30;;
13797;SDS011;6970;51.340;3.240;2023-07-24T16:34:17;3.93;;;1.50;;
13797;SDS011;6970;51.340;3.240;2023-07-24T16:36:46;5.90;;;1.50;;
13797;SDS011;6970;51.340;3.240;2023-07-24T16:39:13;5.50;;;1.37;;
13797;SDS011;6970;51.340;3.240;2023-07-24T16:41:41;2.87;;;1.20;;
13797;SDS011;6970;51.340;3.240;2023-07-24T16:44:09;6.47;;;1.47;;
13797;SDS011;6970;51.340;3.240;2023-07-24T16:46:41;3.73;;;1.50;;
13797;SDS011;6970;51.340;3.240;2023-07-24T16:49:09;2.97;;;1.10;;
13797;SDS011;6970;51.340;3.240;2023-07-24T16:51:37;6.03;;;1.43;;
13797;SDS011;6970;51.340;3.240;2023-07-24T16:54:06;4.80;;;1.10;;
13797;SDS011;6970;51.340;3.240;2023-07-24T16:56:33;7.67;;;1.50;;
13797;SDS011;6970;51.340;3.240;2023-07-24T16:59:00;4.60;;;1.57;;
13797;SDS011;6970;51.340;3.240;2023-07-24T17:01:27;6.10;;;1.60;;
13797;SDS011;6970;51.340;3.240;2023-07-24T17:03:54;3.17;;;1.40;;
13797;SDS011;6970;51.340;3.240;2023-07-24T17:11:28;7.20;;;1.67;;
13797;SDS011;6970;51.340;3.240;2023-07-24T17:13:56;5.97;;;1.50;;
13797;SDS011;6970;51.340;3.240;2023-07-24T17:16:27;4.93;;;1.40;;
13797;SDS011;6970;51.340;3.240;2023-07-24T17:18:54;8.70;;;1.50;;
13797;SDS011;6970;51.340;3.240;2023-07-24T17:21:25;3.20;;;1.47;;
13797;SDS011;6970;51.340;3.240;2023-07-24T17:23:52;3.83;;;0.90;;
13797;SDS011;6970;51.340;3.240;2023-07-24T17:28:50;6.00;;;1.47;;
13797;SDS011;6970;51.340;3.240;2023-07-24T17:31:21;5.33;;;2.07;;
13797;SDS011;6970;51.340;3.240;2023-07-24T17:33:48;6.40;;;1.67;;
13797;SDS011;6970;51.340;3.240;2023-07-24T17:36:18;5.03;;;1.47;;
13797;SDS011;6970;51.340;3.240;2023-07-24T17:41:17;7.63;;;2.40;;
13797;SDS011;6970;51.340;3.240;2023-07-24T17:43:47;7.33;;;2.13;;
13797;SDS011;6970;51.340;3.240;2023-07-24T17:46:20;8.00;;;1.80;;
13797;SDS011;6970;51.340;3.240;2023-07-24T17:48:47;4.40;;;1.20;;
13797;SDS011;6970;51.340;3.240;2023-07-24T17:51:15;7.27;;;1.53;;
13797;SDS011;6970;51.340;3.240;2023-07-24T17:53:45;5.67;;;1.70;;
13797;SDS011;6970;51.340;3.240;2023-07-24T17:56:12;7.20;;;2.17;;
13797;SDS011;6970;51.340;3.240;2023-07-24T17:58:42;8.23;;;1.97;;